sensor_id;sensor_type;location;lat;lon;timestamp;pressure;altitude;pressure_sealevel;temperature;humidity
11912;BME280;6016;41.928;25.556;2023-02-18T00:01:09;99839.53;;;7.28;62.91
11912;BME280;6016;41.928;25.556;2023-02-18T00:03:36;99835.97;;;7.29;63.49
11912;BME280;6016;41.928;25.556;2023-02-18T00:06:11;99839.03;;;7.36;63.17
11912;BME280;6016;41.928;25.556;2023-02-18T00:08:39;99845.75;;;7.40;62.10
11912;BME280;6016;41.928;25.556;2023-02-18T00:11:06;99835.25;;;7.40;62.89
11912;BME280;6016;41.928;25.556;2023-02-18T00:13:33;99819.56;;;7.26;62.84
11912;BME280;6016;41.928;25.556;2023-02-18T00:16:00;99836.19;;;7.39;62.63
11912;BME280;6016;41.928;25.556;2023-02-18T00:18:27;99833.13;;;7.32;62.18
11912;BME280;6016;41.928;25.556;2023-02-18T00:20:54;99833.88;;;7.35;63.22
11912;BME280;6016;41.928;25.556;2023-02-18T00:23:22;99828.72;;;7.33;63.26
11912;BME280;6016;41.928;25.556;2023-02-18T00:25:58;99834.50;;;7.38;63.47
11912;BME280;6016;41.928;25.556;2023-02-18T00:28:25;99842.59;;;7.35;63.52
11912;BME280;6016;41.928;25.556;2023-02-18T00:30:52;99837.44;;;7.34;62.48
11912;BME280;6016;41.928;25.556;2023-02-18T00:33:18;99829.22;;;7.25;63.18
11912;BME280;6016;41.928;25.556;2023-02-18T00:35:45;99782.19;;;6.95;62.46
11912;BME280;6016;41.928;25.556;2023-02-18T00:38:12;99817.69;;;7.00;62.13
11912;BME280;6016;41.928;25.556;2023-02-18T00:40:40;99744.16;;;6.47;63.66
11912;BME280;6016;41.928;25.556;2023-02-18T00:43:08;99730.41;;;6.43;63.33
11912;BME280;6016;41.928;25.556;2023-02-18T00:45:35;99810.13;;;6.96;63.39
11912;BME280;6016;41.928;25.556;2023-02-18T00:48:02;99810.97;;;6.96;64.51
11912;BME280;6016;41.928;25.556;2023-02-18T00:50:29;99738.19;;;6.45;65.02
11912;BME280;6016;41.928;25.556;2023-02-18T00:52:55;99795.72;;;6.88;64.69
11912;BME280;6016;41.928;25.556;2023-02-18T00:55:22;99796.31;;;6.79;64.46
11912;BME280;6016;41.928;25.556;2023-02-18T00:57:51;99791.34;;;6.89;64.24
11912;BME280;6016;41.928;25.556;2023-02-18T01:00:18;99732.00;;;6.46;64.62
11912;BME280;6016;41.928;25.556;2023-02-18T01:02:45;99776.44;;;6.89;65.38
11912;BME280;6016;41.928;25.556;2023-02-18T01:05:11;99707.81;;;6.55;64.43
11912;BME280;6016;41.928;25.556;2023-02-18T01:07:38;99763.31;;;6.89;64.56
11912;BME280;6016;41.928;25.556;2023-02-18T01:10:06;99605.16;;;5.94;63.88
11912;BME280;6016;41.928;25.556;2023-02-18T01:12:33;99756.09;;;6.93;65.09
11912;BME280;6016;41.928;25.556;2023-02-18T01:15:02;99756.41;;;7.01;64.22
11912;BME280;6016;41.928;25.556;2023-02-18T01:17:29;99755.38;;;7.04;65.24
11912;BME280;6016;41.928;25.556;2023-02-18T01:19:55;99693.09;;;6.67;63.68
11912;BME280;6016;41.928;25.556;2023-02-18T01:22:23;99737.88;;;7.04;63.61
11912;BME280;6016;41.928;25.556;2023-02-18T01:24:50;99688.50;;;6.71;64.43
11912;BME280;6016;41.928;25.556;2023-02-18T01:27:16;99723.78;;;6.93;64.93
11912;BME280;6016;41.928;25.556;2023-02-18T01:29:43;99655.69;;;6.51;63.84
11912;BME280;6016;41.928;25.556;2023-02-18T01:32:12;99719.25;;;6.95;63.73
11912;BME280;6016;41.928;25.556;2023-02-18T01:34:38;99723.38;;;6.99;64.67
11912;BME280;6016;41.928;25.556;2023-02-18T01:37:05;99711.00;;;7.01;64.56
11912;BME280;6016;41.928;25.556;2023-02-18T01:39:32;99713.53;;;7.02;64.63
11912;BME280;6016;41.928;25.556;2023-02-18T01:41:59;99703.56;;;7.08;63.95
11912;BME280;6016;41.928;25.556;2023-02-18T01:44:27;99519.28;;;5.99;63.60
11912;BME280;6016;41.928;25.556;2023-02-18T01:46:54;99693.59;;;7.00;64.74
11912;BME280;6016;41.928;25.556;2023-02-18T01:49:25;99643.97;;;6.56;65.32
11912;BME280;6016;41.928;25.556;2023-02-18T01:51:56;99619.41;;;6.44;65.70
11912;BME280;6016;41.928;25.556;2023-02-18T01:54:27;99651.59;;;6.46;64.87
11912;BME280;6016;41.928;25.556;2023-02-18T01:56:56;99697.75;;;6.89;65.39
11912;BME280;6016;41.928;25.556;2023-02-18T01:59:26;99613.00;;;6.36;65.11
11912;BME280;6016;41.928;25.556;2023-02-18T02:01:54;99677.13;;;6.57;65.09
11912;BME280;6016;41.928;25.556;2023-02-18T02:04:23;99698.28;;;6.95;65.42
11912;BME280;6016;41.928;25.556;2023-02-18T02:06:50;99705.03;;;6.99;64.32
11912;BME280;6016;41.928;25.556;2023-02-18T02:09:19;99636.31;;;6.53;64.25
11912;BME280;6016;41.928;25.556;2023-02-18T02:15:23;99506.81;;;5.89;64.75
11912;BME280;6016;41.928;25.556;2023-02-18T02:18:04;99664.69;;;6.74;63.77
11912;BME280;6016;41.928;25.556;2023-02-18T02:20:55;99694.75;;;6.96;63.49
11912;BME280;6016;41.928;25.556;2023-02-18T02:27:10;99702.91;;;6.91;64.29
11912;BME280;6016;41.928;25.556;2023-02-18T02:35:30;99686.13;;;6.94;63.85
11912;BME280;6016;41.928;25.556;2023-02-18T02:38:01;99636.53;;;6.63;64.12
11912;BME280;6016;41.928;25.556;2023-02-18T02:40:35;99687.50;;;6.99;64.33
11912;BME280;6016;41.928;25.556;2023-02-18T02:43:09;99689.38;;;6.97;63.58
11912;BME280;6016;41.928;25.556;2023-02-18T02:45:46;99700.72;;;6.98;63.60
11912;BME280;6016;41.928;25.556;2023-02-18T02:48:22;99693.59;;;7.00;63.27
11912;BME280;6016;41.928;25.556;2023-02-18T02:50:54;99692.75;;;6.99;63.29
11912;BME280;6016;41.928;25.556;2023-02-18T02:53:27;99663.00;;;6.73;63.11
11912;BME280;6016;41.928;25.556;2023-02-18T02:55:55;99704.91;;;7.00;62.39
11912;BME280;6016;41.928;25.556;2023-02-18T02:58:22;99704.28;;;6.97;62.16
11912;BME280;6016;41.928;25.556;2023-02-18T03:00:58;99708.97;;;6.92;62.83
11912;BME280;6016;41.928;25.556;2023-02-18T03:03:38;99712.72;;;6.47;65.16
11912;BME280;6016;41.928;25.556;2023-02-18T03:06:39;99713.09;;;6.41;65.91
11912;BME280;6016;41.928;25.556;2023-02-18T03:09:15;99715.22;;;6.07;65.87
11912;BME280;6016;41.928;25.556;2023-02-18T03:11:52;99669.03;;;5.76;68.39
11912;BME280;6016;41.928;25.556;2023-02-18T03:14:29;99717.88;;;6.34;66.71
11912;BME280;6016;41.928;25.556;2023-02-18T03:17:03;99717.88;;;6.34;68.62
11912;BME280;6016;41.928;25.556;2023-02-18T03:19:37;99639.09;;;5.81;66.88
11912;BME280;6016;41.928;25.556;2023-02-18T03:22:10;99711.50;;;6.38;67.08
11912;BME280;6016;41.928;25.556;2023-02-18T03:24:40;99705.53;;;6.36;66.22
11912;BME280;6016;41.928;25.556;2023-02-18T03:27:11;99592.00;;;5.66;70.22
11912;BME280;6016;41.928;25.556;2023-02-18T03:29:40;99700.09;;;6.67;69.63
11912;BME280;6016;41.928;25.556;2023-02-18T03:32:12;99701.69;;;6.69;66.44
11912;BME280;6016;41.928;25.556;2023-02-18T03:34:44;99694.88;;;6.39;64.82
11912;BME280;6016;41.928;25.556;2023-02-18T03:37:14;99692.88;;;6.15;65.52
11912;BME280;6016;41.928;25.556;2023-02-18T03:39:45;99634.00;;;5.65;67.43
11912;BME280;6016;41.928;25.556;2023-02-18T03:42:14;99687.78;;;6.27;70.05
11912;BME280;6016;41.928;25.556;2023-02-18T03:44:43;99620.84;;;5.94;65.65
11912;BME280;6016;41.928;25.556;2023-02-18T03:47:10;99679.31;;;6.36;64.86
11912;BME280;6016;41.928;25.556;2023-02-18T03:49:37;99685.38;;;6.51;68.61
11912;BME280;6016;41.928;25.556;2023-02-18T03:52:04;99688.03;;;6.37;63.50
11912;BME280;6016;41.928;25.556;2023-02-18T03:54:32;99645.56;;;6.31;67.02
11912;BME280;6016;41.928;25.556;2023-02-18T03:56:59;99692.00;;;6.57;66.99
11912;BME280;6016;41.928;25.556;2023-02-18T03:59:26;99679.97;;;6.40;65.49
11912;BME280;6016;41.928;25.556;2023-02-18T04:01:52;99626.94;;;6.09;66.05
11912;BME280;6016;41.928;25.556;2023-02-18T04:04:19;99624.06;;;6.26;65.81
11912;BME280;6016;41.928;25.556;2023-02-18T04:06:46;99683.69;;;6.78;61.22
11912;BME280;6016;41.928;25.556;2023-02-18T04:09:13;99696.50;;;6.95;60.34
11912;BME280;6016;41.928;25.556;2023-02-18T04:11:41;99701.97;;;6.92;60.74
11912;BME280;6016;41.928;25.556;2023-02-18T04:14:09;99669.63;;;6.79;61.12
11912;BME280;6016;41.928;25.556;2023-02-18T04:16:39;99595.56;;;6.22;60.33
11912;BME280;6016;41.928;25.556;2023-02-18T04:19:06;99710.16;;;7.00;60.48
11912;BME280;6016;41.928;25.556;2023-02-18T04:21:33;99720.56;;;7.02;60.55
11912;BME280;6016;41.928;25.556;2023-02-18T04:24:00;99725.88;;;7.00;60.11
11912;BME280;6016;41.928;25.556;2023-02-18T04:26:27;99661.19;;;6.60;59.71
11912;BME280;6016;41.928;25.556;2023-02-18T04:28:55;99731.13;;;7.00;59.40
11912;BME280;6016;41.928;25.556;2023-02-18T04:31:22;99739.94;;;6.99;60.15
11912;BME280;6016;41.928;25.556;2023-02-18T04:33:48;99736.38;;;7.00;60.26
11912;BME280;6016;41.928;25.556;2023-02-18T04:36:15;99734.91;;;6.96;61.02
11912;BME280;6016;41.928;25.556;2023-02-18T04:38:42;99732.28;;;6.96;59.88
11912;BME280;6016;41.928;25.556;2023-02-18T04:41:09;99741.31;;;6.92;59.83
11912;BME280;6016;41.928;25.556;2023-02-18T04:43:37;99681.44;;;6.58;60.56
11912;BME280;6016;41.928;25.556;2023-02-18T04:46:05;99727.09;;;6.82;60.14
11912;BME280;6016;41.928;25.556;2023-02-18T04:48:32;99711.53;;;6.66;59.86
11912;BME280;6016;41.928;25.556;2023-02-18T04:50:59;99735.28;;;6.77;60.40
11912;BME280;6016;41.928;25.556;2023-02-18T04:53:26;99707.22;;;6.65;60.29
11912;BME280;6016;41.928;25.556;2023-02-18T04:55:53;99718.44;;;6.67;59.72
11912;BME280;6016;41.928;25.556;2023-02-18T04:58:20;99738.53;;;6.81;60.66
11912;BME280;6016;41.928;25.556;2023-02-18T05:00:47;99734.13;;;6.81;60.53
11912;BME280;6016;41.928;25.556;2023-02-18T05:03:15;99742.75;;;6.83;60.84
11912;BME280;6016;41.928;25.556;2023-02-18T05:05:42;99740.13;;;6.83;60.99
11912;BME280;6016;41.928;25.556;2023-02-18T05:08:10;99745.56;;;6.80;59.97
11912;BME280;6016;41.928;25.556;2023-02-18T05:10:37;99666.44;;;6.33;60.36
11912;BME280;6016;41.928;25.556;2023-02-18T05:13:04;99642.09;;;6.03;61.23
11912;BME280;6016;41.928;25.556;2023-02-18T05:15:31;99747.44;;;6.36;62.53
11912;BME280;6016;41.928;25.556;2023-02-18T05:17:58;99580.47;;;5.27;66.55
11912;BME280;6016;41.928;25.556;2023-02-18T05:20:27;99736.41;;;5.58;64.97
11912;BME280;6016;41.928;25.556;2023-02-18T05:22:53;99505.88;;;4.32;67.16
11912;BME280;6016;41.928;25.556;2023-02-18T05:25:20;99737.94;;;5.91;67.25
11912;BME280;6016;41.928;25.556;2023-02-18T05:27:47;99702.84;;;5.80;65.54
11912;BME280;6016;41.928;25.556;2023-02-18T05:30:14;99741.19;;;6.39;63.12
11912;BME280;6016;41.928;25.556;2023-02-18T05:32:41;99711.94;;;6.17;63.55
11912;BME280;6016;41.928;25.556;2023-02-18T05:35:08;99718.59;;;6.51;68.33
11912;BME280;6016;41.928;25.556;2023-02-18T05:37:36;99742.50;;;6.31;66.59
11912;BME280;6016;41.928;25.556;2023-02-18T05:40:04;99738.38;;;6.27;65.80
11912;BME280;6016;41.928;25.556;2023-02-18T05:42:31;99649.13;;;5.30;66.11
11912;BME280;6016;41.928;25.556;2023-02-18T05:44:58;99713.81;;;5.72;67.19
11912;BME280;6016;41.928;25.556;2023-02-18T05:47:25;99731.28;;;5.86;67.40
11912;BME280;6016;41.928;25.556;2023-02-18T05:49:52;99741.41;;;6.21;69.05
11912;BME280;6016;41.928;25.556;2023-02-18T05:52:20;99749.44;;;6.60;67.79
11912;BME280;6016;41.928;25.556;2023-02-18T05:54:49;99724.53;;;6.67;64.15
11912;BME280;6016;41.928;25.556;2023-02-18T05:57:15;99747.22;;;7.09;63.17
11912;BME280;6016;41.928;25.556;2023-02-18T05:59:42;99700.81;;;6.96;61.48
11912;BME280;6016;41.928;25.556;2023-02-18T06:02:09;99728.81;;;7.36;60.54
11912;BME280;6016;41.928;25.556;2023-02-18T06:04:36;99708.34;;;7.28;60.73
11912;BME280;6016;41.928;25.556;2023-02-18T06:07:03;99743.59;;;7.50;60.34
11912;BME280;6016;41.928;25.556;2023-02-18T06:09:30;99716.41;;;7.51;59.96
11912;BME280;6016;41.928;25.556;2023-02-18T06:11:59;99734.78;;;7.77;59.60
11912;BME280;6016;41.928;25.556;2023-02-18T06:14:25;99485.56;;;6.35;59.82
11912;BME280;6016;41.928;25.556;2023-02-18T06:16:52;99748.53;;;8.07;59.40
11912;BME280;6016;41.928;25.556;2023-02-18T06:19:19;99736.44;;;8.17;59.59
11912;BME280;6016;41.928;25.556;2023-02-18T06:21:46;99519.44;;;6.89;59.72
11912;BME280;6016;41.928;25.556;2023-02-18T06:24:13;99709.13;;;8.07;59.38
11912;BME280;6016;41.928;25.556;2023-02-18T06:26:40;99673.22;;;7.94;59.64
11912;BME280;6016;41.928;25.556;2023-02-18T06:29:08;99700.03;;;8.24;58.45
11912;BME280;6016;41.928;25.556;2023-02-18T06:31:34;99743.53;;;8.54;59.52
11912;BME280;6016;41.928;25.556;2023-02-18T06:34:01;99736.22;;;8.57;59.11
11912;BME280;6016;41.928;25.556;2023-02-18T06:36:28;99733.66;;;8.69;59.44
11912;BME280;6016;41.928;25.556;2023-02-18T06:38:55;99659.97;;;8.33;59.15
11912;BME280;6016;41.928;25.556;2023-02-18T06:41:23;99727.13;;;8.99;59.28
11912;BME280;6016;41.928;25.556;2023-02-18T06:43:50;99726.81;;;9.15;58.46
11912;BME280;6016;41.928;25.556;2023-02-18T06:46:19;99675.94;;;9.03;57.79
11912;BME280;6016;41.928;25.556;2023-02-18T06:48:45;99728.72;;;9.13;59.98
11912;BME280;6016;41.928;25.556;2023-02-18T06:51:13;99691.41;;;8.83;61.59
11912;BME280;6016;41.928;25.556;2023-02-18T06:53:40;99740.13;;;9.25;59.23
11912;BME280;6016;41.928;25.556;2023-02-18T06:56:08;99731.09;;;9.52;57.80
11912;BME280;6016;41.928;25.556;2023-02-18T06:58:35;99545.06;;;8.47;56.80
11912;BME280;6016;41.928;25.556;2023-02-18T07:01:02;99724.75;;;9.77;56.68
11912;BME280;6016;41.928;25.556;2023-02-18T07:03:30;99718.53;;;10.01;56.39
11912;BME280;6016;41.928;25.556;2023-02-18T07:05:57;99711.09;;;10.73;54.47
11912;BME280;6016;41.928;25.556;2023-02-18T07:08:24;99665.31;;;11.38;52.39
11912;BME280;6016;41.928;25.556;2023-02-18T07:10:51;99703.16;;;12.61;50.52
11912;BME280;6016;41.928;25.556;2023-02-18T07:13:18;99698.16;;;12.98;49.15
11912;BME280;6016;41.928;25.556;2023-02-18T07:15:45;99656.50;;;12.90;48.97
11912;BME280;6016;41.928;25.556;2023-02-18T07:18:12;99663.84;;;13.06;48.86
11912;BME280;6016;41.928;25.556;2023-02-18T07:20:40;99674.16;;;13.76;48.19
11912;BME280;6016;41.928;25.556;2023-02-18T07:23:07;99665.44;;;14.12;46.79
11912;BME280;6016;41.928;25.556;2023-02-18T07:25:35;99660.41;;;14.55;45.64
11912;BME280;6016;41.928;25.556;2023-02-18T07:28:02;99682.16;;;13.95;47.47
11912;BME280;6016;41.928;25.556;2023-02-18T07:30:29;99673.84;;;13.42;49.30
11912;BME280;6016;41.928;25.556;2023-02-18T07:32:56;99676.78;;;13.48;50.33
11912;BME280;6016;41.928;25.556;2023-02-18T07:35:23;99228.97;;;10.65;50.38
11912;BME280;6016;41.928;25.556;2023-02-18T07:37:51;99666.75;;;13.13;51.03
11912;BME280;6016;41.928;25.556;2023-02-18T07:40:20;99599.81;;;12.53;51.71
11912;BME280;6016;41.928;25.556;2023-02-18T07:42:48;99663.75;;;12.68;52.88
11912;BME280;6016;41.928;25.556;2023-02-18T07:45:15;99628.34;;;12.20;53.88
11912;BME280;6016;41.928;25.556;2023-02-18T07:47:42;99666.75;;;12.14;55.53
11912;BME280;6016;41.928;25.556;2023-02-18T07:50:10;99657.66;;;11.66;57.52
11912;BME280;6016;41.928;25.556;2023-02-18T07:52:37;99668.81;;;11.79;58.40
11912;BME280;6016;41.928;25.556;2023-02-18T07:55:06;99665.06;;;11.72;57.90
11912;BME280;6016;41.928;25.556;2023-02-18T07:57:33;99665.88;;;11.73;58.71
11912;BME280;6016;41.928;25.556;2023-02-18T08:00:20;99571.06;;;11.38;57.71
11912;BME280;6016;41.928;25.556;2023-02-18T08:02:47;99631.13;;;12.28;56.33
11912;BME280;6016;41.928;25.556;2023-02-18T08:05:14;99613.16;;;12.71;56.05
11912;BME280;6016;41.928;25.556;2023-02-18T08:07:40;99626.66;;;13.55;53.94
11912;BME280;6016;41.928;25.556;2023-02-18T08:10:09;99660.31;;;14.47;51.76
11912;BME280;6016;41.928;25.556;2023-02-18T08:12:36;99651.72;;;15.26;50.55
11912;BME280;6016;41.928;25.556;2023-02-18T08:15:03;99635.03;;;15.85;48.53
11912;BME280;6016;41.928;25.556;2023-02-18T08:17:30;99579.25;;;15.58;48.09
11912;BME280;6016;41.928;25.556;2023-02-18T08:19:57;99642.19;;;15.84;47.55
11912;BME280;6016;41.928;25.556;2023-02-18T08:22:23;99569.81;;;15.29;48.40
11912;BME280;6016;41.928;25.556;2023-02-18T08:24:53;99601.75;;;15.72;47.74
11912;BME280;6016;41.928;25.556;2023-02-18T08:27:21;99630.47;;;15.60;47.76
11912;BME280;6016;41.928;25.556;2023-02-18T08:29:49;99624.03;;;15.37;48.52
11912;BME280;6016;41.928;25.556;2023-02-18T08:32:16;99619.91;;;15.42;48.82
11912;BME280;6016;41.928;25.556;2023-02-18T08:34:42;99589.25;;;15.65;47.62
11912;BME280;6016;41.928;25.556;2023-02-18T08:37:09;99541.75;;;15.70;47.32
11912;BME280;6016;41.928;25.556;2023-02-18T08:39:37;99520.69;;;15.42;46.62
11912;BME280;6016;41.928;25.556;2023-02-18T08:42:04;99606.03;;;16.16;47.27
11912;BME280;6016;41.928;25.556;2023-02-18T08:44:32;99553.63;;;15.92;46.69
11912;BME280;6016;41.928;25.556;2023-02-18T08:46:59;99549.84;;;16.44;46.76
11912;BME280;6016;41.928;25.556;2023-02-18T08:49:26;99490.63;;;16.34;45.72
11912;BME280;6016;41.928;25.556;2023-02-18T08:51:53;99567.59;;;16.85;44.93
11912;BME280;6016;41.928;25.556;2023-02-18T08:54:31;99616.00;;;17.47;44.86
11912;BME280;6016;41.928;25.556;2023-02-18T08:56:58;99532.78;;;17.12;43.61
11912;BME280;6016;41.928;25.556;2023-02-18T08:59:25;99621.00;;;17.90;42.12
11912;BME280;6016;41.928;25.556;2023-02-18T09:01:54;99576.34;;;17.76;43.25
11912;BME280;6016;41.928;25.556;2023-02-18T09:04:20;99523.84;;;17.36;41.54
11912;BME280;6016;41.928;25.556;2023-02-18T09:06:50;99620.88;;;17.75;41.35
11912;BME280;6016;41.928;25.556;2023-02-18T09:09:17;99610.53;;;17.32;43.04
11912;BME280;6016;41.928;25.556;2023-02-18T09:11:44;99643.72;;;17.05;42.72
11912;BME280;6016;41.928;25.556;2023-02-18T09:14:11;99568.31;;;16.54;43.00
11912;BME280;6016;41.928;25.556;2023-02-18T09:16:39;99591.28;;;16.55;43.97
11912;BME280;6016;41.928;25.556;2023-02-18T09:19:07;99576.81;;;16.33;44.13
11912;BME280;6016;41.928;25.556;2023-02-18T09:21:34;99620.75;;;16.45;43.93
11912;BME280;6016;41.928;25.556;2023-02-18T09:24:01;99606.91;;;16.34;44.34
11912;BME280;6016;41.928;25.556;2023-02-18T09:26:28;99581.75;;;16.03;44.59
11912;BME280;6016;41.928;25.556;2023-02-18T09:28:55;99615.56;;;16.36;44.52
11912;BME280;6016;41.928;25.556;2023-02-18T09:31:25;99618.25;;;16.44;44.46
11912;BME280;6016;41.928;25.556;2023-02-18T09:33:53;99518.16;;;15.83;43.99
11912;BME280;6016;41.928;25.556;2023-02-18T09:36:22;99617.25;;;16.53;44.19
11912;BME280;6016;41.928;25.556;2023-02-18T09:38:49;99607.59;;;16.60;45.13
11912;BME280;6016;41.928;25.556;2023-02-18T09:41:25;99606.59;;;16.53;38.63
11912;BME280;6016;41.928;25.556;2023-02-18T09:43:55;99563.59;;;15.98;38.08
11912;BME280;6016;41.928;25.556;2023-02-18T09:46:27;99605.09;;;16.42;39.81
11912;BME280;6016;41.928;25.556;2023-02-18T09:48:55;99605.94;;;16.68;39.75
11912;BME280;6016;41.928;25.556;2023-02-18T09:51:24;99560.16;;;16.72;38.33
11912;BME280;6016;41.928;25.556;2023-02-18T09:53:51;99604.44;;;17.07;36.02
11912;BME280;6016;41.928;25.556;2023-02-18T09:56:22;99574.94;;;17.00;39.51
11912;BME280;6016;41.928;25.556;2023-02-18T09:58:54;99593.94;;;17.53;37.08
11912;BME280;6016;41.928;25.556;2023-02-18T10:01:27;99592.03;;;17.79;36.00
11912;BME280;6016;41.928;25.556;2023-02-18T10:03:57;99555.47;;;17.79;37.46
11912;BME280;6016;41.928;25.556;2023-02-18T10:06:30;99592.09;;;18.25;35.53
11912;BME280;6016;41.928;25.556;2023-02-18T10:08:59;99553.38;;;17.98;35.13
11912;BME280;6016;41.928;25.556;2023-02-18T10:11:30;99583.44;;;18.23;32.79
11912;BME280;6016;41.928;25.556;2023-02-18T10:13:58;99568.06;;;18.25;34.71
11912;BME280;6016;41.928;25.556;2023-02-18T10:16:27;99556.38;;;18.26;35.77
11912;BME280;6016;41.928;25.556;2023-02-18T10:18:56;99584.50;;;18.37;31.57
11912;BME280;6016;41.928;25.556;2023-02-18T10:21:25;99579.94;;;18.23;31.44
11912;BME280;6016;41.928;25.556;2023-02-18T10:23:58;99532.03;;;17.98;33.95
11912;BME280;6016;41.928;25.556;2023-02-18T10:26:28;99558.22;;;18.26;33.93
11912;BME280;6016;41.928;25.556;2023-02-18T10:28:56;99496.91;;;17.86;33.95
11912;BME280;6016;41.928;25.556;2023-02-18T10:31:28;99512.84;;;17.94;34.15
11912;BME280;6016;41.928;25.556;2023-02-18T10:33:58;99549.59;;;18.16;35.46
11912;BME280;6016;41.928;25.556;2023-02-18T10:36:30;99531.06;;;17.91;35.21
11912;BME280;6016;41.928;25.556;2023-02-18T10:39:12;99545.88;;;18.25;34.73
11912;BME280;6016;41.928;25.556;2023-02-18T10:41:48;99551.28;;;18.55;32.96
11912;BME280;6016;41.928;25.556;2023-02-18T10:44:22;99543.81;;;18.35;32.51
11912;BME280;6016;41.928;25.556;2023-02-18T10:46:59;99523.63;;;18.33;32.23
11912;BME280;6016;41.928;25.556;2023-02-18T10:49:54;99333.56;;;17.06;33.12
11912;BME280;6016;41.928;25.556;2023-02-18T10:52:22;99526.88;;;18.20;34.14
11912;BME280;6016;41.928;25.556;2023-02-18T10:54:59;99477.19;;;17.87;35.22
11912;BME280;6016;41.928;25.556;2023-02-18T10:57:29;99481.78;;;17.47;33.13
11912;BME280;6016;41.928;25.556;2023-02-18T10:59:59;99488.94;;;18.09;34.78
11912;BME280;6016;41.928;25.556;2023-02-18T11:02:29;99515.22;;;18.21;35.58
11912;BME280;6016;41.928;25.556;2023-02-18T11:04:58;99480.09;;;18.00;33.45
11912;BME280;6016;41.928;25.556;2023-02-18T11:07:30;99498.88;;;18.16;33.53
11912;BME280;6016;41.928;25.556;2023-02-18T11:10:09;99494.78;;;18.28;31.63
11912;BME280;6016;41.928;25.556;2023-02-18T11:12:44;99495.13;;;18.63;31.36
11912;BME280;6016;41.928;25.556;2023-02-18T11:15:21;99437.06;;;18.57;32.28
11912;BME280;6016;41.928;25.556;2023-02-18T11:17:50;99488.69;;;19.18;30.59
11912;BME280;6016;41.928;25.556;2023-02-18T11:20:30;99484.97;;;19.34;30.86
11912;BME280;6016;41.928;25.556;2023-02-18T11:23:14;99474.94;;;19.36;29.08
11912;BME280;6016;41.928;25.556;2023-02-18T11:25:54;99483.44;;;19.24;31.32
11912;BME280;6016;41.928;25.556;2023-02-18T11:28:28;99471.72;;;19.10;31.08
11912;BME280;6016;41.928;25.556;2023-02-18T11:30:58;99470.25;;;19.08;30.73
11912;BME280;6016;41.928;25.556;2023-02-18T11:33:32;99464.09;;;19.07;30.00
11912;BME280;6016;41.928;25.556;2023-02-18T11:36:09;99447.41;;;19.05;29.68
11912;BME280;6016;41.928;25.556;2023-02-18T11:38:43;99462.06;;;19.09;28.90
11912;BME280;6016;41.928;25.556;2023-02-18T11:41:15;99457.25;;;19.05;29.33
11912;BME280;6016;41.928;25.556;2023-02-18T11:43:46;99457.41;;;19.33;29.53
11912;BME280;6016;41.928;25.556;2023-02-18T11:46:18;99458.97;;;19.43;29.04
11912;BME280;6016;41.928;25.556;2023-02-18T11:48:45;99423.22;;;19.14;27.54
11912;BME280;6016;41.928;25.556;2023-02-18T11:51:15;99453.16;;;19.39;28.00
11912;BME280;6016;41.928;25.556;2023-02-18T11:53:57;99444.19;;;19.68;28.07
11912;BME280;6016;41.928;25.556;2023-02-18T11:56:28;99418.50;;;19.74;27.52
11912;BME280;6016;41.928;25.556;2023-02-18T11:58:56;99385.19;;;19.55;27.75
11912;BME280;6016;41.928;25.556;2023-02-18T12:01:35;99403.84;;;19.70;28.09
11912;BME280;6016;41.928;25.556;2023-02-18T12:04:08;99359.34;;;19.40;27.49
11912;BME280;6016;41.928;25.556;2023-02-18T12:06:42;99363.59;;;19.35;28.26
11912;BME280;6016;41.928;25.556;2023-02-18T12:09:18;99406.03;;;19.60;28.19
11912;BME280;6016;41.928;25.556;2023-02-18T12:11:50;99410.97;;;19.41;28.77
11912;BME280;6016;41.928;25.556;2023-02-18T12:14:19;99330.28;;;18.64;30.45
11912;BME280;6016;41.928;25.556;2023-02-18T12:17:08;99378.06;;;18.89;29.56
11912;BME280;6016;41.928;25.556;2023-02-18T12:19:59;99398.53;;;18.96;29.65
11912;BME280;6016;41.928;25.556;2023-02-18T12:22:38;99375.31;;;18.82;29.28
11912;BME280;6016;41.928;25.556;2023-02-18T12:25:21;99384.88;;;18.91;29.90
11912;BME280;6016;41.928;25.556;2023-02-18T12:27:57;99365.53;;;18.89;29.77
11912;BME280;6016;41.928;25.556;2023-02-18T12:30:39;99382.38;;;19.20;29.38
11912;BME280;6016;41.928;25.556;2023-02-18T12:33:18;99382.63;;;19.25;28.91
11912;BME280;6016;41.928;25.556;2023-02-18T12:35:56;99382.63;;;19.25;28.87
11912;BME280;6016;41.928;25.556;2023-02-18T12:38:53;99381.94;;;19.38;28.77
11912;BME280;6016;41.928;25.556;2023-02-18T12:41:33;99361.53;;;19.59;29.13
11912;BME280;6016;41.928;25.556;2023-02-18T12:44:13;99368.53;;;19.81;30.34
11912;BME280;6016;41.928;25.556;2023-02-18T12:47:16;99249.19;;;18.93;29.26
11912;BME280;6016;41.928;25.556;2023-02-18T12:50:08;99290.84;;;19.03;30.79
11912;BME280;6016;41.928;25.556;2023-02-18T12:52:47;99315.16;;;19.08;32.12
11912;BME280;6016;41.928;25.556;2023-02-18T12:55:35;99296.03;;;18.89;31.64
11912;BME280;6016;41.928;25.556;2023-02-18T12:58:15;99352.94;;;19.20;33.00
11912;BME280;6016;41.928;25.556;2023-02-18T13:01:08;99253.78;;;18.41;33.21
11912;BME280;6016;41.928;25.556;2023-02-18T13:04:04;99338.22;;;19.31;33.78
11912;BME280;6016;41.928;25.556;2023-02-18T13:07:07;99330.72;;;19.19;34.02
11912;BME280;6016;41.928;25.556;2023-02-18T13:09:52;99303.91;;;18.76;34.20
11912;BME280;6016;41.928;25.556;2023-02-18T13:12:27;99342.28;;;19.05;34.01
11912;BME280;6016;41.928;25.556;2023-02-18T13:15:00;99336.56;;;19.08;34.25
11912;BME280;6016;41.928;25.556;2023-02-18T13:17:33;99331.22;;;19.08;33.89
11912;BME280;6016;41.928;25.556;2023-02-18T13:20:05;99330.84;;;18.96;33.58
11912;BME280;6016;41.928;25.556;2023-02-18T13:22:35;99294.34;;;18.66;32.63
11912;BME280;6016;41.928;25.556;2023-02-18T13:25:03;99316.19;;;18.70;34.14
11912;BME280;6016;41.928;25.556;2023-02-18T13:27:35;99336.50;;;18.86;33.12
11912;BME280;6016;41.928;25.556;2023-02-18T13:30:17;99333.38;;;18.82;33.80
11912;BME280;6016;41.928;25.556;2023-02-18T13:32:57;99275.53;;;18.23;33.63
11912;BME280;6016;41.928;25.556;2023-02-18T13:35:32;99332.31;;;18.62;34.55